sensor_id;sensor_type;location;lat;lon;timestamp;pressure;altitude;pressure_sealevel;temperature;humidity
38612;BME280;24368;52.156;20.788;2024-01-10T00:01:28;101919.55;;;-11.06;100.00
38612;BME280;24368;52.156;20.788;2024-01-10T00:06:30;101920.71;;;-10.95;100.00
38612;BME280;24368;52.156;20.788;2024-01-10T00:11:32;101919.27;;;-10.90;100.00
38612;BME280;24368;52.156;20.788;2024-01-10T00:16:34;101915.40;;;-10.84;100.00
38612;BME280;24368;52.156;20.788;2024-01-10T00:21:35;101910.95;;;-10.88;100.00
38612;BME280;24368;52.156;20.788;2024-01-10T00:26:37;101903.20;;;-10.81;100.00
38612;BME280;24368;52.156;20.788;2024-01-10T00:31:39;101901.54;;;-10.77;100.00
38612;BME280;24368;52.156;20.788;2024-01-10T00:36:41;101899.30;;;-10.79;100.00
38612;BME280;24368;52.156;20.788;2024-01-10T00:41:43;101897.11;;;-10.78;100.00
38612;BME280;24368;52.156;20.788;2024-01-10T00:46:45;101900.06;;;-10.73;100.00
38612;BME280;24368;52.156;20.788;2024-01-10T00:51:47;101902.91;;;-10.77;100.00
38612;BME280;24368;52.156;20.788;2024-01-10T00:56:48;101899.48;;;-10.77;100.00
38612;BME280;24368;52.156;20.788;2024-01-10T01:01:52;101904.45;;;-10.77;100.00
38612;BME280;24368;52.156;20.788;2024-01-10T01:06:54;101902.71;;;-10.92;100.00
38612;BME280;24368;52.156;20.788;2024-01-10T01:11:56;101903.25;;;-10.90;100.00
38612;BME280;24368;52.156;20.788;2024-01-10T01:16:57;101903.23;;;-10.92;100.00
38612;BME280;24368;52.156;20.788;2024-01-10T01:21:59;101897.02;;;-10.99;100.00
38612;BME280;24368;52.156;20.788;2024-01-10T01:27:02;101892.36;;;-11.16;100.00
38612;BME280;24368;52.156;20.788;2024-01-10T01:32:05;101896.35;;;-11.10;100.00
38612;BME280;24368;52.156;20.788;2024-01-10T01:37:07;101892.51;;;-11.18;100.00
38612;BME280;24368;52.156;20.788;2024-01-10T01:42:08;101882.67;;;-11.28;100.00
38612;BME280;24368;52.156;20.788;2024-01-10T01:47:10;101880.88;;;-11.22;100.00
38612;BME280;24368;52.156;20.788;2024-01-10T01:52:12;101874.80;;;-11.20;100.00
38612;BME280;24368;52.156;20.788;2024-01-10T01:57:14;101865.94;;;-11.20;100.00
38612;BME280;24368;52.156;20.788;2024-01-10T02:02:16;101862.56;;;-11.19;100.00
38612;BME280;24368;52.156;20.788;2024-01-10T02:07:19;101858.66;;;-11.17;100.00
38612;BME280;24368;52.156;20.788;2024-01-10T02:12:21;101861.44;;;-11.13;100.00
38612;BME280;24368;52.156;20.788;2024-01-10T02:17:23;101855.80;;;-11.15;100.00
38612;BME280;24368;52.156;20.788;2024-01-10T02:22:24;101866.29;;;-11.19;100.00
38612;BME280;24368;52.156;20.788;2024-01-10T02:27:26;101862.89;;;-11.19;100.00
38612;BME280;24368;52.156;20.788;2024-01-10T02:32:28;101858.29;;;-11.07;100.00
38612;BME280;24368;52.156;20.788;2024-01-10T02:37:30;101855.95;;;-11.17;100.00
38612;BME280;24368;52.156;20.788;2024-01-10T02:42:32;101852.64;;;-11.22;100.00
38612;BME280;24368;52.156;20.788;2024-01-10T02:47:34;101845.23;;;-11.29;100.00
38612;BME280;24368;52.156;20.788;2024-01-10T02:52:37;101850.86;;;-11.29;100.00
38612;BME280;24368;52.156;20.788;2024-01-10T02:57:39;101845.15;;;-11.35;100.00
38612;BME280;24368;52.156;20.788;2024-01-10T03:02:41;101840.94;;;-11.45;100.00
38612;BME280;24368;52.156;20.788;2024-01-10T03:07:43;101840.52;;;-11.51;100.00
38612;BME280;24368;52.156;20.788;2024-01-10T03:12:45;101827.39;;;-11.53;100.00
38612;BME280;24368;52.156;20.788;2024-01-10T03:17:46;101831.77;;;-11.57;100.00
38612;BME280;24368;52.156;20.788;2024-01-10T03:22:48;101816.56;;;-11.49;100.00
38612;BME280;24368;52.156;20.788;2024-01-10T03:27:50;101818.67;;;-11.44;100.00
38612;BME280;24368;52.156;20.788;2024-01-10T03:32:52;101808.00;;;-11.42;100.00
38612;BME280;24368;52.156;20.788;2024-01-10T03:37:53;101799.95;;;-11.45;100.00
38612;BME280;24368;52.156;20.788;2024-01-10T03:42:56;101796.02;;;-11.47;100.00
38612;BME280;24368;52.156;20.788;2024-01-10T03:47:58;101796.09;;;-11.54;100.00
38612;BME280;24368;52.156;20.788;2024-01-10T03:53:00;101795.98;;;-11.51;100.00
38612;BME280;24368;52.156;20.788;2024-01-10T03:58:01;101792.23;;;-11.63;100.00
38612;BME280;24368;52.156;20.788;2024-01-10T04:03:03;101786.98;;;-11.61;100.00
38612;BME280;24368;52.156;20.788;2024-01-10T04:08:06;101785.55;;;-11.54;100.00
38612;BME280;24368;52.156;20.788;2024-01-10T04:13:08;101783.04;;;-11.64;100.00
38612;BME280;24368;52.156;20.788;2024-01-10T04:18:10;101783.70;;;-11.53;100.00
38612;BME280;24368;52.156;20.788;2024-01-10T04:23:12;101778.80;;;-11.50;100.00
38612;BME280;24368;52.156;20.788;2024-01-10T04:28:13;101767.11;;;-11.46;100.00
38612;BME280;24368;52.156;20.788;2024-01-10T04:33:15;101766.80;;;-11.44;100.00
38612;BME280;24368;52.156;20.788;2024-01-10T04:38:17;101763.55;;;-11.46;100.00
38612;BME280;24368;52.156;20.788;2024-01-10T04:43:20;101761.48;;;-11.49;100.00
38612;BME280;24368;52.156;20.788;2024-01-10T04:48:21;101759.32;;;-11.44;100.00
38612;BME280;24368;52.156;20.788;2024-01-10T04:53:24;101760.36;;;-11.42;100.00
38612;BME280;24368;52.156;20.788;2024-01-10T04:58:26;101757.87;;;-11.38;100.00
38612;BME280;24368;52.156;20.788;2024-01-10T05:03:27;101764.38;;;-11.34;100.00
38612;BME280;24368;52.156;20.788;2024-01-10T05:08:29;101768.41;;;-11.38;100.00
38612;BME280;24368;52.156;20.788;2024-01-10T05:13:31;101775.42;;;-11.35;100.00
38612;BME280;24368;52.156;20.788;2024-01-10T05:18:32;101780.79;;;-11.41;100.00
38612;BME280;24368;52.156;20.788;2024-01-10T05:23:35;101774.77;;;-11.46;100.00
38612;BME280;24368;52.156;20.788;2024-01-10T05:28:37;101777.05;;;-11.41;100.00
38612;BME280;24368;52.156;20.788;2024-01-10T05:33:38;101781.11;;;-11.43;100.00
38612;BME280;24368;52.156;20.788;2024-01-10T05:38:40;101782.17;;;-11.39;100.00
38612;BME280;24368;52.156;20.788;2024-01-10T05:43:42;101771.92;;;-11.43;100.00
38612;BME280;24368;52.156;20.788;2024-01-10T05:48:45;101778.08;;;-11.54;100.00
38612;BME280;24368;52.156;20.788;2024-01-10T05:53:48;101780.06;;;-11.58;100.00
38612;BME280;24368;52.156;20.788;2024-01-10T05:58:49;101779.63;;;-11.66;100.00
38612;BME280;24368;52.156;20.788;2024-01-10T06:03:52;101773.17;;;-11.64;100.00
38612;BME280;24368;52.156;20.788;2024-01-10T06:08:53;101773.16;;;-11.65;100.00
38612;BME280;24368;52.156;20.788;2024-01-10T06:13:55;101762.06;;;-11.69;100.00
38612;BME280;24368;52.156;20.788;2024-01-10T06:18:59;101758.80;;;-11.72;100.00
38612;BME280;24368;52.156;20.788;2024-01-10T06:24:01;101761.70;;;-11.70;100.00
38612;BME280;24368;52.156;20.788;2024-01-10T06:29:02;101759.59;;;-11.75;100.00
38612;BME280;24368;52.156;20.788;2024-01-10T06:34:04;101756.77;;;-11.84;100.00
38612;BME280;24368;52.156;20.788;2024-01-10T06:39:09;101750.27;;;-11.74;100.00
38612;BME280;24368;52.156;20.788;2024-01-10T06:44:14;101753.48;;;-11.74;100.00
38612;BME280;24368;52.156;20.788;2024-01-10T06:49:19;101762.20;;;-11.71;100.00
38612;BME280;24368;52.156;20.788;2024-01-10T06:54:20;101767.23;;;-11.76;100.00
38612;BME280;24368;52.156;20.788;2024-01-10T06:59:22;101769.96;;;-11.76;100.00
38612;BME280;24368;52.156;20.788;2024-01-10T07:04:24;101765.67;;;-11.78;100.00
38612;BME280;24368;52.156;20.788;2024-01-10T07:09:26;101778.05;;;-11.68;100.00
38612;BME280;24368;52.156;20.788;2024-01-10T07:14:28;101769.58;;;-11.67;100.00
38612;BME280;24368;52.156;20.788;2024-01-10T07:19:30;101768.58;;;-11.77;100.00
38612;BME280;24368;52.156;20.788;2024-01-10T07:24:32;101778.41;;;-11.79;100.00
38612;BME280;24368;52.156;20.788;2024-01-10T07:29:36;101782.20;;;-11.75;100.00
38612;BME280;24368;52.156;20.788;2024-01-10T07:34:38;101780.75;;;-11.69;100.00
38612;BME280;24368;52.156;20.788;2024-01-10T07:39:40;101773.66;;;-11.66;100.00
38612;BME280;24368;52.156;20.788;2024-01-10T07:44:42;101769.40;;;-11.54;100.00
38612;BME280;24368;52.156;20.788;2024-01-10T07:49:44;101763.14;;;-11.52;100.00
38612;BME280;24368;52.156;20.788;2024-01-10T07:54:46;101771.30;;;-11.52;100.00
38612;BME280;24368;52.156;20.788;2024-01-10T07:59:47;101775.15;;;-11.43;100.00
38612;BME280;24368;52.156;20.788;2024-01-10T08:04:49;101769.88;;;-11.30;100.00
38612;BME280;24368;52.156;20.788;2024-01-10T08:09:51;101768.58;;;-11.24;100.00
38612;BME280;24368;52.156;20.788;2024-01-10T08:14:53;101775.34;;;-11.14;100.00
38612;BME280;24368;52.156;20.788;2024-01-10T08:19:55;101782.30;;;-11.14;100.00
38612;BME280;24368;52.156;20.788;2024-01-10T08:24:56;101782.66;;;-11.12;100.00
38612;BME280;24368;52.156;20.788;2024-01-10T08:29:59;101781.60;;;-11.02;100.00
38612;BME280;24368;52.156;20.788;2024-01-10T08:35:01;101777.70;;;-11.00;100.00
38612;BME280;24368;52.156;20.788;2024-01-10T08:40:03;101784.02;;;-10.98;100.00
38612;BME280;24368;52.156;20.788;2024-01-10T08:45:11;101780.81;;;-10.80;100.00
38612;BME280;24368;52.156;20.788;2024-01-10T08:50:13;101770.59;;;-10.62;100.00
38612;BME280;24368;52.156;20.788;2024-01-10T08:55:15;101770.00;;;-10.52;100.00
38612;BME280;24368;52.156;20.788;2024-01-10T09:00:17;101765.48;;;-10.44;100.00
38612;BME280;24368;52.156;20.788;2024-01-10T09:05:19;101765.61;;;-10.27;100.00
38612;BME280;24368;52.156;20.788;2024-01-10T09:10:21;101769.70;;;-10.24;100.00
38612;BME280;24368;52.156;20.788;2024-01-10T09:15:29;101763.61;;;-10.17;100.00
38612;BME280;24368;52.156;20.788;2024-01-10T09:20:31;101758.19;;;-10.12;100.00
38612;BME280;24368;52.156;20.788;2024-01-10T09:25:33;101760.64;;;-10.02;100.00
38612;BME280;24368;52.156;20.788;2024-01-10T09:30:34;101764.44;;;-9.96;100.00
38612;BME280;24368;52.156;20.788;2024-01-10T09:35:36;101766.00;;;-9.92;100.00
38612;BME280;24368;52.156;20.788;2024-01-10T09:40:38;101762.73;;;-9.67;100.00
38612;BME280;24368;52.156;20.788;2024-01-10T09:45:44;101764.23;;;-9.76;100.00
38612;BME280;24368;52.156;20.788;2024-01-10T09:50:50;101766.27;;;-9.76;100.00
38612;BME280;24368;52.156;20.788;2024-01-10T09:55:53;101766.89;;;-9.54;100.00
38612;BME280;24368;52.156;20.788;2024-01-10T10:00:58;101767.08;;;-9.51;100.00
38612;BME280;24368;52.156;20.788;2024-01-10T10:06:00;101771.06;;;-9.37;100.00
38612;BME280;24368;52.156;20.788;2024-01-10T10:11:02;101770.52;;;-9.46;100.00
38612;BME280;24368;52.156;20.788;2024-01-10T10:16:04;101773.45;;;-9.38;100.00
38612;BME280;24368;52.156;20.788;2024-01-10T10:21:12;101768.25;;;-9.13;100.00
38612;BME280;24368;52.156;20.788;2024-01-10T10:26:16;101764.20;;;-9.02;100.00
38612;BME280;24368;52.156;20.788;2024-01-10T10:31:23;101757.19;;;-9.04;100.00
38612;BME280;24368;52.156;20.788;2024-01-10T10:36:25;101754.86;;;-8.85;100.00
38612;BME280;24368;52.156;20.788;2024-01-10T10:41:29;101745.64;;;-8.72;100.00
38612;BME280;24368;52.156;20.788;2024-01-10T10:46:32;101730.11;;;-8.46;100.00
38612;BME280;24368;52.156;20.788;2024-01-10T10:51:36;101721.86;;;-8.25;100.00
38612;BME280;24368;52.156;20.788;2024-01-10T10:56:40;101703.70;;;-8.01;100.00
38612;BME280;24368;52.156;20.788;2024-01-10T11:01:43;101699.56;;;-7.86;100.00
38612;BME280;24368;52.156;20.788;2024-01-10T11:06:47;101689.43;;;-7.72;99.79
38612;BME280;24368;52.156;20.788;2024-01-10T11:12:06;101694.44;;;-7.42;98.65
38612;BME280;24368;52.156;20.788;2024-01-10T11:27:52;101666.59;;;-1.34;67.85
38612;BME280;24368;52.156;20.788;2024-01-10T11:32:56;101664.06;;;-0.82;66.35
38612;BME280;24368;52.156;20.788;2024-01-10T11:37:59;101660.48;;;0.14;62.31
38612;BME280;24368;52.156;20.788;2024-01-10T11:43:02;101653.88;;;-0.15;61.61
38612;BME280;24368;52.156;20.788;2024-01-10T11:48:07;101654.52;;;-2.03;67.62
38612;BME280;24368;52.156;20.788;2024-01-10T11:53:09;101646.86;;;-1.34;65.99
38612;BME280;24368;52.156;20.788;2024-01-10T11:58:11;101639.23;;;-1.45;64.20
38612;BME280;24368;52.156;20.788;2024-01-10T12:03:12;101638.73;;;-2.66;68.67
38612;BME280;24368;52.156;20.788;2024-01-10T12:08:16;101633.80;;;-3.75;73.48
38612;BME280;24368;52.156;20.788;2024-01-10T12:13:17;101625.75;;;-3.86;75.60
38612;BME280;24368;52.156;20.788;2024-01-10T12:18:20;101624.95;;;-3.56;72.72
38612;BME280;24368;52.156;20.788;2024-01-10T12:23:23;101624.52;;;-2.70;69.21
38612;BME280;24368;52.156;20.788;2024-01-10T12:28:25;101629.43;;;-2.00;66.76
38612;BME280;24368;52.156;20.788;2024-01-10T12:33:27;101621.10;;;-2.38;66.89
38612;BME280;24368;52.156;20.788;2024-01-10T12:38:29;101627.32;;;-3.71;70.80
38612;BME280;24368;52.156;20.788;2024-01-10T12:43:31;101628.79;;;-4.55;75.03
38612;BME280;24368;52.156;20.788;2024-01-10T12:48:34;101632.99;;;-4.60;75.78
38612;BME280;24368;52.156;20.788;2024-01-10T12:53:43;101625.02;;;-4.56;76.47
38612;BME280;24368;52.156;20.788;2024-01-10T12:58:45;101631.47;;;-5.91;81.51
38612;BME280;24368;52.156;20.788;2024-01-10T13:03:47;101624.98;;;-5.94;83.93
38612;BME280;24368;52.156;20.788;2024-01-10T13:08:50;101616.30;;;-5.86;83.77
38612;BME280;24368;52.156;20.788;2024-01-10T13:13:52;101611.90;;;-5.40;80.85
38612;BME280;24368;52.156;20.788;2024-01-10T13:18:54;101610.77;;;-4.98;79.48
38612;BME280;24368;52.156;20.788;2024-01-10T13:23:58;101604.33;;;-4.73;77.72
38612;BME280;24368;52.156;20.788;2024-01-10T13:29:00;101605.02;;;-5.04;78.98
38612;BME280;24368;52.156;20.788;2024-01-10T13:34:04;101603.06;;;-5.22;79.49
38612;BME280;24368;52.156;20.788;2024-01-10T13:39:06;101601.77;;;-5.05;78.59
38612;BME280;24368;52.156;20.788;2024-01-10T13:44:08;101594.09;;;-5.20;79.11
38612;BME280;24368;52.156;20.788;2024-01-10T13:49:11;101590.36;;;-5.36;80.41
38612;BME280;24368;52.156;20.788;2024-01-10T13:54:13;101586.73;;;-6.08;83.68
38612;BME280;24368;52.156;20.788;2024-01-10T13:59:14;101578.55;;;-6.43;86.37
38612;BME280;24368;52.156;20.788;2024-01-10T14:04:16;101567.27;;;-6.16;85.98
38612;BME280;24368;52.156;20.788;2024-01-10T14:09:18;101568.45;;;-6.29;85.52
38612;BME280;24368;52.156;20.788;2024-01-10T14:14:20;101563.52;;;-6.50;87.38
38612;BME280;24368;52.156;20.788;2024-01-10T14:19:22;101562.24;;;-6.41;86.23
38612;BME280;24368;52.156;20.788;2024-01-10T14:24:24;101557.84;;;-6.99;89.13
38612;BME280;24368;52.156;20.788;2024-01-10T14:29:26;101551.75;;;-7.29;91.72
38612;BME280;24368;52.156;20.788;2024-01-10T14:34:28;101553.58;;;-7.45;92.58
38612;BME280;24368;52.156;20.788;2024-01-10T14:39:29;101555.38;;;-7.60;94.08
38612;BME280;24368;52.156;20.788;2024-01-10T14:44:31;101551.65;;;-7.66;94.81
38612;BME280;24368;52.156;20.788;2024-01-10T14:49:33;101547.11;;;-7.79;95.54
38612;BME280;24368;52.156;20.788;2024-01-10T14:54:35;101539.95;;;-7.83;96.22
38612;BME280;24368;52.156;20.788;2024-01-10T14:59:37;101539.31;;;-7.90;96.27
38612;BME280;24368;52.156;20.788;2024-01-10T15:04:40;101535.23;;;-7.98;96.53
38612;BME280;24368;52.156;20.788;2024-01-10T15:09:43;101519.85;;;-7.98;96.55
38612;BME280;24368;52.156;20.788;2024-01-10T15:14:45;101518.17;;;-8.03;96.22
38612;BME280;24368;52.156;20.788;2024-01-10T15:19:47;101515.29;;;-8.08;96.02
38612;BME280;24368;52.156;20.788;2024-01-10T15:24:49;101502.83;;;-8.12;95.94
38612;BME280;24368;52.156;20.788;2024-01-10T15:29:51;101505.58;;;-8.17;96.28
38612;BME280;24368;52.156;20.788;2024-01-10T15:34:53;101505.91;;;-8.12;96.03
38612;BME280;24368;52.156;20.788;2024-01-10T15:39:55;101505.56;;;-8.13;96.02
38612;BME280;24368;52.156;20.788;2024-01-10T15:44:56;101496.34;;;-8.15;95.96
38612;BME280;24368;52.156;20.788;2024-01-10T15:49:58;101502.16;;;-8.18;96.02
38612;BME280;24368;52.156;20.788;2024-01-10T15:55:01;101501.34;;;-8.23;96.24
38612;BME280;24368;52.156;20.788;2024-01-10T16:00:03;101491.95;;;-8.28;96.89
38612;BME280;24368;52.156;20.788;2024-01-10T16:05:07;101489.61;;;-8.35;97.10
38612;BME280;24368;52.156;20.788;2024-01-10T16:10:09;101476.84;;;-8.40;97.70
38612;BME280;24368;52.156;20.788;2024-01-10T16:15:11;101465.40;;;-8.43;98.56
38612;BME280;24368;52.156;20.788;2024-01-10T16:20:15;101460.23;;;-8.40;98.74
38612;BME280;24368;52.156;20.788;2024-01-10T16:25:16;101464.52;;;-8.40;98.63
38612;BME280;24368;52.156;20.788;2024-01-10T16:30:18;101465.68;;;-8.36;99.65
38612;BME280;24368;52.156;20.788;2024-01-10T16:35:20;101469.34;;;-8.19;99.68
38612;BME280;24368;52.156;20.788;2024-01-10T16:40:22;101471.84;;;-8.37;99.66
38612;BME280;24368;52.156;20.788;2024-01-10T16:45:24;101472.41;;;-8.45;100.00
38612;BME280;24368;52.156;20.788;2024-01-10T16:50:27;101461.34;;;-8.53;100.00
38612;BME280;24368;52.156;20.788;2024-01-10T16:55:32;101450.01;;;-8.42;100.00
38612;BME280;24368;52.156;20.788;2024-01-10T17:00:33;101443.04;;;-8.51;100.00
38612;BME280;24368;52.156;20.788;2024-01-10T17:05:36;101437.65;;;-8.68;100.00
38612;BME280;24368;52.156;20.788;2024-01-10T17:10:38;101432.54;;;-8.75;100.00
38612;BME280;24368;52.156;20.788;2024-01-10T17:15:39;101425.17;;;-8.68;100.00
38612;BME280;24368;52.156;20.788;2024-01-10T17:20:41;101421.63;;;-8.79;100.00
38612;BME280;24368;52.156;20.788;2024-01-10T17:25:44;101412.77;;;-8.84;100.00
38612;BME280;24368;52.156;20.788;2024-01-10T17:30:46;101402.68;;;-8.80;100.00
38612;BME280;24368;52.156;20.788;2024-01-10T17:35:48;101398.93;;;-8.83;100.00
38612;BME280;24368;52.156;20.788;2024-01-10T17:40:50;101392.65;;;-8.88;100.00
38612;BME280;24368;52.156;20.788;2024-01-10T17:45:53;101391.15;;;-9.01;100.00
38612;BME280;24368;52.156;20.788;2024-01-10T17:50:56;101393.06;;;-9.12;100.00
38612;BME280;24368;52.156;20.788;2024-01-10T17:55:57;101394.11;;;-9.23;100.00
38612;BME280;24368;52.156;20.788;2024-01-10T18:00:59;101381.79;;;-9.11;100.00
38612;BME280;24368;52.156;20.788;2024-01-10T18:06:01;101379.08;;;-9.16;100.00
38612;BME280;24368;52.156;20.788;2024-01-10T18:11:03;101383.98;;;-9.03;100.00
38612;BME280;24368;52.156;20.788;2024-01-10T18:16:05;101391.15;;;-9.01;100.00
38612;BME280;24368;52.156;20.788;2024-01-10T18:21:07;101387.25;;;-9.11;100.00
38612;BME280;24368;52.156;20.788;2024-01-10T18:26:09;101383.86;;;-9.17;100.00
38612;BME280;24368;52.156;20.788;2024-01-10T18:31:11;101374.31;;;-9.23;100.00
38612;BME280;24368;52.156;20.788;2024-01-10T18:36:14;101368.20;;;-9.30;100.00
38612;BME280;24368;52.156;20.788;2024-01-10T18:41:16;101360.87;;;-9.35;100.00
38612;BME280;24368;52.156;20.788;2024-01-10T18:46:18;101367.02;;;-9.42;100.00
38612;BME280;24368;52.156;20.788;2024-01-10T18:51:20;101375.89;;;-9.44;100.00
38612;BME280;24368;52.156;20.788;2024-01-10T18:56:22;101367.70;;;-9.44;100.00
38612;BME280;24368;52.156;20.788;2024-01-10T19:01:24;101368.23;;;-9.50;100.00
38612;BME280;24368;52.156;20.788;2024-01-10T19:06:26;101363.77;;;-9.37;100.00
38612;BME280;24368;52.156;20.788;2024-01-10T19:11:28;101346.18;;;-9.31;100.00
38612;BME280;24368;52.156;20.788;2024-01-10T19:16:30;101355.58;;;-9.34;100.00
38612;BME280;24368;52.156;20.788;2024-01-10T19:21:32;101357.45;;;-9.34;100.00
38612;BME280;24368;52.156;20.788;2024-01-10T19:26:33;101351.63;;;-9.31;100.00
38612;BME280;24368;52.156;20.788;2024-01-10T19:31:35;101331.85;;;-9.30;100.00
38612;BME280;24368;52.156;20.788;2024-01-10T19:36:37;101324.32;;;-9.25;100.00
38612;BME280;24368;52.156;20.788;2024-01-10T19:41:39;101329.60;;;-9.25;100.00
38612;BME280;24368;52.156;20.788;2024-01-10T19:46:41;101334.59;;;-9.33;100.00
38612;BME280;24368;52.156;20.788;2024-01-10T19:51:44;101331.54;;;-9.41;100.00
38612;BME280;24368;52.156;20.788;2024-01-10T19:56:48;101325.25;;;-9.50;100.00
38612;BME280;24368;52.156;20.788;2024-01-10T20:01:50;101321.16;;;-9.53;100.00
38612;BME280;24368;52.156;20.788;2024-01-10T20:06:52;101312.80;;;-9.52;100.00
38612;BME280;24368;52.156;20.788;2024-01-10T20:11:54;101314.48;;;-9.43;100.00
38612;BME280;24368;52.156;20.788;2024-01-10T20:16:55;101316.02;;;-9.49;100.00
38612;BME280;24368;52.156;20.788;2024-01-10T20:21:57;101313.28;;;-9.44;100.00
38612;BME280;24368;52.156;20.788;2024-01-10T20:26:59;101303.89;;;-9.38;100.00
38612;BME280;24368;52.156;20.788;2024-01-10T20:32:01;101296.89;;;-9.39;100.00
38612;BME280;24368;52.156;20.788;2024-01-10T20:37:03;101288.34;;;-9.31;100.00
38612;BME280;24368;52.156;20.788;2024-01-10T20:42:05;101290.91;;;-9.35;100.00
38612;BME280;24368;52.156;20.788;2024-01-10T20:47:08;101291.77;;;-9.37;100.00
38612;BME280;24368;52.156;20.788;2024-01-10T20:52:10;101278.95;;;-9.35;100.00
38612;BME280;24368;52.156;20.788;2024-01-10T20:57:12;101270.55;;;-9.25;100.00
38612;BME280;24368;52.156;20.788;2024-01-10T21:02:14;101264.59;;;-9.27;100.00
38612;BME280;24368;52.156;20.788;2024-01-10T21:07:16;101256.59;;;-9.29;100.00
38612;BME280;24368;52.156;20.788;2024-01-10T21:12:19;101253.84;;;-9.23;100.00
38612;BME280;24368;52.156;20.788;2024-01-10T21:17:21;101256.23;;;-9.26;100.00
38612;BME280;24368;52.156;20.788;2024-01-10T21:22:22;101249.88;;;-9.18;100.00
38612;BME280;24368;52.156;20.788;2024-01-10T21:27:24;101234.70;;;-9.21;100.00
38612;BME280;24368;52.156;20.788;2024-01-10T21:32:28;101232.13;;;-9.19;100.00
38612;BME280;24368;52.156;20.788;2024-01-10T21:37:30;101221.67;;;-9.09;100.00
38612;BME280;24368;52.156;20.788;2024-01-10T21:42:32;101208.83;;;-9.03;100.00
38612;BME280;24368;52.156;20.788;2024-01-10T21:47:34;101215.48;;;-9.03;100.00
38612;BME280;24368;52.156;20.788;2024-01-10T21:52:36;101215.48;;;-9.01;100.00
38612;BME280;24368;52.156;20.788;2024-01-10T21:57:38;101210.20;;;-9.02;100.00
38612;BME280;24368;52.156;20.788;2024-01-10T22:02:40;101205.92;;;-9.03;100.00
38612;BME280;24368;52.156;20.788;2024-01-10T22:07:42;101199.45;;;-9.04;100.00
38612;BME280;24368;52.156;20.788;2024-01-10T22:12:43;101197.46;;;-9.15;100.00
38612;BME280;24368;52.156;20.788;2024-01-10T22:17:46;101203.47;;;-9.23;100.00
38612;BME280;24368;52.156;20.788;2024-01-10T22:22:48;101198.36;;;-9.22;100.00
38612;BME280;24368;52.156;20.788;2024-01-10T22:27:49;101194.23;;;-9.19;100.00
38612;BME280;24368;52.156;20.788;2024-01-10T22:32:52;101176.91;;;-9.31;100.00
38612;BME280;24368;52.156;20.788;2024-01-10T22:37:54;101171.84;;;-9.40;100.00
38612;BME280;24368;52.156;20.788;2024-01-10T22:42:56;101154.98;;;-9.45;100.00
38612;BME280;24368;52.156;20.788;2024-01-10T22:47:58;101147.98;;;-9.44;100.00
38612;BME280;24368;52.156;20.788;2024-01-10T22:53:00;101151.18;;;-9.39;100.00
38612;BME280;24368;52.156;20.788;2024-01-10T22:58:01;101144.73;;;-9.42;100.00
38612;BME280;24368;52.156;20.788;2024-01-10T23:03:03;101123.10;;;-9.48;100.00
38612;BME280;24368;52.156;20.788;2024-01-10T23:08:05;101098.70;;;-9.48;100.00
38612;BME280;24368;52.156;20.788;2024-01-10T23:13:08;101089.08;;;-9.38;100.00
38612;BME280;24368;52.156;20.788;2024-01-10T23:18:10;101068.09;;;-9.37;100.00
38612;BME280;24368;52.156;20.788;2024-01-10T23:23:12;101056.45;;;-9.31;100.00
38612;BME280;24368;52.156;20.788;2024-01-10T23:28:13;101043.98;;;-9.31;100.00
38612;BME280;24368;52.156;20.788;2024-01-10T23:33:15;101037.97;;;-9.27;100.00
38612;BME280;24368;52.156;20.788;2024-01-10T23:38:18;101022.96;;;-9.26;100.00
38612;BME280;24368;52.156;20.788;2024-01-10T23:43:19;101011.98;;;-9.19;100.00
38612;BME280;24368;52.156;20.788;2024-01-10T23:48:22;100993.88;;;-9.17;100.00
38612;BME280;24368;52.156;20.788;2024-01-10T23:53:24;100982.73;;;-9.12;100.00
38612;BME280;24368;52.156;20.788;2024-01-10T23:58:26;100971.63;;;-9.11;100.00
